createdAt,value
2023-10-31T00:02:10.094Z,98157.53
2023-10-31T00:07:12.385Z,98122.38
2023-10-31T00:12:14.079Z,98110.41
2023-10-31T00:17:15.743Z,98163.38
2023-10-31T00:22:17.567Z,98177.50
2023-10-31T00:27:19.257Z,98163.81
2023-10-31T00:32:22.171Z,98203.66
2023-10-31T00:37:23.856Z,98209.34
2023-10-31T00:42:25.476Z,98202.00
2023-10-31T00:47:27.296Z,98210.59
2023-10-31T00:52:29.033Z,98184.66
2023-10-31T00:57:31.085Z,98161.81
2023-10-31T01:02:32.867Z,98140.22
2023-10-31T01:07:35.594Z,98135.44
2023-10-31T01:12:38.273Z,98136.97
2023-10-31T01:17:39.997Z,98126.88
2023-10-31T01:22:41.679Z,98122.31
2023-10-31T01:27:44.279Z,98128.88
2023-10-31T01:32:46.004Z,98128.16
2023-10-31T01:37:47.958Z,98108.34
2023-10-31T01:42:50.121Z,98119.63
2023-10-31T01:47:51.886Z,98115.47
2023-10-31T01:52:53.832Z,98109.50
2023-10-31T01:57:55.784Z,98113.38
2023-10-31T02:02:58.897Z,98122.81
2023-10-31T02:08:00.692Z,98118.94
2023-10-31T02:13:15.742Z,98126.09
2023-10-31T02:18:17.488Z,98127.59
2023-10-31T02:23:19.221Z,98146.59
2023-10-31T02:28:21.252Z,98151.41
2023-10-31T02:33:23.078Z,98153.25
2023-10-31T02:38:24.728Z,98151.63
2023-10-31T02:43:26.728Z,98164.47
2023-10-31T02:48:28.353Z,98165.28
2023-10-31T02:53:30.027Z,98175.09
2023-10-31T02:58:31.660Z,98181.03
2023-10-31T03:03:33.472Z,98181.66
2023-10-31T03:08:35.395Z,98188.28
2023-10-31T03:13:37.096Z,98183.72
2023-10-31T03:18:38.905Z,98185.81
2023-10-31T03:23:40.527Z,98176.59
2023-10-31T03:28:42.233Z,98157.91
2023-10-31T03:33:45.733Z,98151.66
2023-10-31T03:38:47.697Z,98144.06
2023-10-31T03:43:49.328Z,98151.88
2023-10-31T03:48:51.056Z,98159.78
2023-10-31T03:53:52.748Z,98162.00
2023-10-31T03:58:54.403Z,98162.00
2023-10-31T04:03:56.091Z,98156.63
2023-10-31T04:08:57.759Z,98158.94
2023-10-31T04:13:59.453Z,98147.16
2023-10-31T04:19:01.085Z,98149.44
2023-10-31T04:24:02.786Z,98166.66
2023-10-31T04:29:04.502Z,98176.53
2023-10-31T04:34:06.131Z,98190.13
2023-10-31T04:39:07.736Z,98201.94
2023-10-31T04:44:09.538Z,98200.13
2023-10-31T04:49:11.152Z,98203.28
2023-10-31T04:54:12.842Z,98205.50
2023-10-31T04:59:14.560Z,98223.00
2023-10-31T05:04:16.286Z,98210.91
2023-10-31T05:09:19.118Z,98198.94
2023-10-31T05:14:21.329Z,98215.91
2023-10-31T05:19:23.025Z,98201.06
2023-10-31T05:24:24.649Z,98203.28
2023-10-31T05:29:26.257Z,98216.22
2023-10-31T05:34:27.905Z,98210.59
2023-10-31T05:39:29.503Z,98237.06
2023-10-31T05:44:31.147Z,98248.41
2023-10-31T05:49:32.759Z,98256.06
2023-10-31T05:54:34.356Z,98256.72
2023-10-31T05:59:35.966Z,98268.97
2023-10-31T06:04:39.776Z,98273.03
2023-10-31T06:09:41.481Z,98288.34
2023-10-31T06:14:43.137Z,98300.97
2023-10-31T06:19:46.759Z,98311.16
2023-10-31T06:24:48.480Z,98341.69
2023-10-31T06:30:01.450Z,98359.78
2023-10-31T06:35:12.525Z,98369.38
2023-10-31T06:40:14.555Z,98373.16
2023-10-31T06:45:16.215Z,98383.53
2023-10-31T06:50:20.527Z,98391.94
2023-10-31T06:55:22.555Z,98404.19
2023-10-31T07:00:24.513Z,98411.28
2023-10-31T07:05:26.210Z,98408.75
2023-10-31T07:10:27.918Z,98409.75
2023-10-31T07:15:29.650Z,98419.47
2023-10-31T07:20:31.378Z,98432.31
2023-10-31T07:25:32.995Z,98446.97
2023-10-31T07:30:34.887Z,98456.81
2023-10-31T07:35:36.569Z,98464.59
2023-10-31T07:40:38.198Z,98476.00
2023-10-31T07:45:40.027Z,98481.13
2023-10-31T07:50:42.465Z,98486.47
2023-10-31T07:55:44.407Z,98486.47
2023-10-31T08:00:46.087Z,98494.38
2023-10-31T08:05:47.678Z,98522.91
2023-10-31T08:10:49.367Z,98516.72
2023-10-31T08:15:51.094Z,98512.38
2023-10-31T08:20:53.040Z,98518.69
2023-10-31T08:25:54.679Z,98525.81
2023-10-31T08:30:56.391Z,98521.63
2023-10-31T08:35:58.160Z,98529.31
2023-10-31T08:41:00.713Z,98544.03
2023-10-31T08:46:02.691Z,98558.72
2023-10-31T08:51:04.714Z,98556.00
2023-10-31T08:56:06.741Z,98562.22
2023-10-31T09:01:08.464Z,98561.38
2023-10-31T09:06:10.123Z,98569.84
2023-10-31T09:11:11.851Z,98573.00
2023-10-31T09:16:14.849Z,98577.69
2023-10-31T09:21:16.666Z,98574.63
2023-10-31T09:26:19.037Z,98582.91
2023-10-31T09:31:20.815Z,98596.53
2023-10-31T09:36:22.585Z,98596.19
2023-10-31T09:41:24.567Z,98594.06
2023-10-31T09:46:26.265Z,98584.38
2023-10-31T09:51:29.037Z,98601.94
2023-10-31T09:56:35.593Z,98631.53
2023-10-31T10:01:37.216Z,98640.81
2023-10-31T10:06:51.870Z,98648.63
2023-10-31T10:11:54.707Z,98646.94
2023-10-31T10:16:57.097Z,98653.97
2023-10-31T10:22:00.125Z,98657.84
2023-10-31T10:27:01.843Z,98665.50
2023-10-31T10:32:07.397Z,98655.28
2023-10-31T10:37:09.736Z,98646.09
2023-10-31T10:42:14.500Z,98644.56
2023-10-31T10:47:16.569Z,98656.50
2023-10-31T10:52:22.187Z,98653.56
2023-10-31T10:57:55.595Z,98641.63
2023-10-31T11:02:58.046Z,98631.63
2023-10-31T11:08:00.654Z,98629.63
2023-10-31T11:13:02.606Z,98643.72
2023-10-31T11:18:05.041Z,98651.59
2023-10-31T11:23:07.759Z,98647.75
2023-10-31T11:28:17.480Z,98648.59
2023-10-31T11:33:22.866Z,98666.47
2023-10-31T11:38:34.078Z,98657.53
2023-10-31T11:43:42.005Z,98655.22
2023-10-31T11:48:54.510Z,98660.59
2023-10-31T11:53:57.244Z,98663.47
2023-10-31T11:59:08.366Z,98657.97
2023-10-31T12:04:10.134Z,98677.63
2023-10-31T12:09:11.866Z,98689.41
2023-10-31T12:14:19.588Z,98710.38
2023-10-31T12:19:22.254Z,98718.25
2023-10-31T12:24:24.267Z,98709.09
2023-10-31T12:29:25.947Z,98687.59
2023-10-31T12:34:27.609Z,98702.47
2023-10-31T12:39:29.736Z,98670.34
2023-10-31T12:44:31.567Z,98689.22
2023-10-31T12:49:34.281Z,98726.53
2023-10-31T12:54:37.685Z,98738.81
2023-10-31T12:59:40.063Z,98741.50
2023-10-31T13:04:42.144Z,98745.66
2023-10-31T13:09:43.963Z,98755.59
2023-10-31T13:14:46.462Z,98768.03
2023-10-31T13:19:48.157Z,98782.13
2023-10-31T13:24:50.247Z,98789.38
2023-10-31T13:29:51.881Z,98795.41
2023-10-31T13:34:53.659Z,98800.78
2023-10-31T13:39:55.450Z,98812.16
2023-10-31T13:44:57.250Z,98817.78
2023-10-31T13:49:59.038Z,98824.84
2023-10-31T13:55:00.732Z,98824.84
2023-10-31T14:00:02.370Z,98833.13
2023-10-31T14:05:14.662Z,98834.56
2023-10-31T14:10:16.691Z,98841.78
2023-10-31T14:15:18.621Z,98841.38
2023-10-31T14:20:20.286Z,98814.91
2023-10-31T14:25:21.956Z,98820.69
2023-10-31T14:30:23.562Z,98825.63
2023-10-31T14:35:25.284Z,98828.16
2023-10-31T14:40:27.023Z,98810.53
2023-10-31T14:45:28.723Z,98818.63
2023-10-31T14:50:30.348Z,98826.06
2023-10-31T14:55:32.169Z,98827.31
2023-10-31T15:00:33.820Z,98834.75
2023-10-31T15:05:35.519Z,98848.41
2023-10-31T15:10:37.225Z,98843.47
2023-10-31T15:15:39.290Z,98859.81
2023-10-31T15:20:41.013Z,98867.06
2023-10-31T15:25:42.658Z,98873.47
2023-10-31T15:30:44.338Z,98881.16
2023-10-31T15:35:47.272Z,98881.56
2023-10-31T15:40:51.407Z,98882.38
2023-10-31T15:45:53.105Z,98893.16
2023-10-31T15:50:54.734Z,98910.09
2023-10-31T15:55:56.416Z,98916.72
2023-10-31T16:00:58.049Z,98915.06
2023-10-31T16:06:00.272Z,98923.97
2023-10-31T16:11:02.151Z,98930.41
2023-10-31T16:16:06.271Z,98935.56
2023-10-31T16:21:19.786Z,98942.00
2023-10-31T16:26:21.489Z,98960.59
2023-10-31T16:31:24.736Z,98964.31
2023-10-31T16:36:26.378Z,98988.97
2023-10-31T16:41:30.344Z,98995.75
2023-10-31T16:46:32.077Z,99008.59
2023-10-31T16:51:34.245Z,99005.94
2023-10-31T16:56:35.998Z,99019.97
2023-10-31T17:01:38.050Z,99034.22
2023-10-31T17:06:39.723Z,99033.84
2023-10-31T17:11:41.473Z,99051.00
2023-10-31T17:16:44.322Z,99062.00
2023-10-31T17:21:46.111Z,99071.88
2023-10-31T17:26:47.817Z,99076.00
2023-10-31T17:31:49.432Z,99090.06
2023-10-31T17:36:51.167Z,99093.59
2023-10-31T17:41:52.955Z,99096.69
2023-10-31T17:46:54.629Z,99107.47
2023-10-31T17:51:56.223Z,99110.09
2023-10-31T17:56:58.282Z,99110.78
2023-10-31T18:01:59.978Z,99123.31
2023-10-31T18:07:01.718Z,99126.22
2023-10-31T18:12:03.573Z,99133.47
2023-10-31T18:17:05.413Z,99144.47
2023-10-31T18:22:07.060Z,99145.00
2023-10-31T18:27:08.760Z,99149.78
2023-10-31T18:32:10.447Z,99157.69
2023-10-31T18:37:12.107Z,99145.53
2023-10-31T18:42:13.812Z,99158.72
2023-10-31T18:47:15.695Z,99164.72
2023-10-31T18:52:17.494Z,99161.66
2023-10-31T18:57:19.157Z,99165.38
2023-10-31T19:02:21.469Z,99160.38
2023-10-31T19:07:23.126Z,99176.13
2023-10-31T19:12:24.810Z,99179.59
2023-10-31T19:17:27.429Z,99188.88
2023-10-31T19:22:29.152Z,99193.09
2023-10-31T19:27:30.828Z,99197.00
2023-10-31T19:32:32.629Z,99203.56
2023-10-31T19:37:34.332Z,99214.56
2023-10-31T19:42:35.979Z,99219.28
2023-10-31T19:47:37.649Z,99224.91
2023-10-31T19:52:39.293Z,99224.91
2023-10-31T19:57:41.052Z,99236.91
2023-10-31T20:02:45.301Z,99243.75
2023-10-31T20:07:49.109Z,99238.53
2023-10-31T20:12:50.803Z,99253.13
2023-10-31T20:17:52.449Z,99258.03
2023-10-31T20:22:54.079Z,99263.75
2023-10-31T20:27:55.691Z,99262.03
2023-10-31T20:32:57.579Z,99262.88
2023-10-31T20:37:59.368Z,99273.66
2023-10-31T20:43:01.717Z,99281.13
2023-10-31T20:48:03.620Z,99275.88
2023-10-31T20:53:06.220Z,99283.09
2023-10-31T20:58:08.956Z,99290.28
2023-10-31T21:03:10.938Z,99294.75
2023-10-31T21:08:12.680Z,99290.63
2023-10-31T21:13:14.372Z,99291.47
2023-10-31T21:18:16.371Z,99301.31
2023-10-31T21:23:18.130Z,99301.81
2023-10-31T21:28:20.530Z,99304.22
2023-10-31T21:33:24.539Z,99302.56
2023-10-31T21:38:26.159Z,99304.66
2023-10-31T21:43:27.853Z,99306.91
2023-10-31T21:48:29.531Z,99317.53
2023-10-31T21:53:31.239Z,99319.72
2023-10-31T21:58:32.906Z,99327.78
2023-10-31T22:03:34.780Z,99331.50
2023-10-31T22:08:37.363Z,99343.03
2023-10-31T22:13:39.479Z,99339.28
2023-10-31T22:18:41.094Z,99352.56
2023-10-31T22:23:42.789Z,99354.06
2023-10-31T22:28:44.455Z,99352.16
2023-10-31T22:33:46.280Z,99367.56
2023-10-31T22:38:47.932Z,99372.56
2023-10-31T22:43:49.610Z,99373.59
2023-10-31T22:48:52.132Z,99373.59
2023-10-31T22:53:53.864Z,99373.34
2023-10-31T22:58:55.709Z,99379.53
2023-10-31T23:03:58.195Z,99393.81
2023-10-31T23:09:06.194Z,99377.91
2023-10-31T23:14:13.143Z,99384.66
2023-10-31T23:19:14.937Z,99384.56
2023-10-31T23:24:16.553Z,99374.66
2023-10-31T23:29:18.251Z,99387.34
2023-10-31T23:34:19.946Z,99386.69
2023-10-31T23:39:21.559Z,99394.47
2023-10-31T23:44:23.210Z,99393.84
2023-10-31T23:49:24.823Z,99387.34
2023-10-31T23:54:26.450Z,99397.97
2023-10-31T23:59:28.164Z,99391.22
